sensor_id;sensor_type;location;lat;lon;timestamp;pressure;altitude;pressure_sealevel;temperature;humidity
66668;BME280;57205;51.438;-2.006;2023-04-06T00:01:39;100804.97;;;9.27;100.00
66668;BME280;57205;51.438;-2.006;2023-04-06T00:04:05;100801.50;;;9.26;100.00
66668;BME280;57205;51.438;-2.006;2023-04-06T00:06:31;100798.28;;;9.24;100.00
66668;BME280;57205;51.438;-2.006;2023-04-06T00:08:58;100797.47;;;9.24;100.00
66668;BME280;57205;51.438;-2.006;2023-04-06T00:11:23;100791.06;;;9.25;100.00
66668;BME280;57205;51.438;-2.006;2023-04-06T00:13:50;100782.81;;;9.26;100.00
66668;BME280;57205;51.438;-2.006;2023-04-06T00:16:15;100790.56;;;9.28;100.00
66668;BME280;57205;51.438;-2.006;2023-04-06T00:18:42;100786.03;;;9.28;100.00
66668;BME280;57205;51.438;-2.006;2023-04-06T00:21:11;100792.19;;;9.29;100.00
66668;BME280;57205;51.438;-2.006;2023-04-06T00:23:36;100784.19;;;9.29;100.00
66668;BME280;57205;51.438;-2.006;2023-04-06T00:26:02;100780.69;;;9.28;100.00
66668;BME280;57205;51.438;-2.006;2023-04-06T00:28:49;100786.84;;;9.29;100.00
66668;BME280;57205;51.438;-2.006;2023-04-06T00:31:18;100782.28;;;9.29;100.00
66668;BME280;57205;51.438;-2.006;2023-04-06T00:33:44;100787.41;;;9.31;100.00
66668;BME280;57205;51.438;-2.006;2023-04-06T00:36:10;100776.72;;;9.31;100.00
66668;BME280;57205;51.438;-2.006;2023-04-06T00:38:35;100763.91;;;9.33;100.00
66668;BME280;57205;51.438;-2.006;2023-04-06T00:41:01;100766.84;;;9.31;100.00
66668;BME280;57205;51.438;-2.006;2023-04-06T00:43:29;100762.31;;;9.32;100.00
66668;BME280;57205;51.438;-2.006;2023-04-06T00:45:54;100757.22;;;9.30;100.00
66668;BME280;57205;51.438;-2.006;2023-04-06T00:48:20;100758.03;;;9.31;100.00
66668;BME280;57205;51.438;-2.006;2023-04-06T00:50:45;100764.16;;;9.31;100.00
66668;BME280;57205;51.438;-2.006;2023-04-06T00:53:11;100759.09;;;9.30;100.00
66668;BME280;57205;51.438;-2.006;2023-04-06T00:55:52;100749.78;;;9.32;100.00
66668;BME280;57205;51.438;-2.006;2023-04-06T00:58:17;100751.38;;;9.33;100.00
66668;BME280;57205;51.438;-2.006;2023-04-06T01:00:43;100746.03;;;9.33;100.00
66668;BME280;57205;51.438;-2.006;2023-04-06T01:03:08;100746.03;;;9.33;100.00
66668;BME280;57205;51.438;-2.006;2023-04-06T01:05:35;100740.69;;;9.33;100.00
66668;BME280;57205;51.438;-2.006;2023-04-06T01:08:10;100734.31;;;9.34;100.00
66668;BME280;57205;51.438;-2.006;2023-04-06T01:10:36;100728.16;;;9.34;100.00
66668;BME280;57205;51.438;-2.006;2023-04-06T01:13:01;100729.19;;;9.33;100.00
66668;BME280;57205;51.438;-2.006;2023-04-06T01:15:28;100727.59;;;9.32;100.00
66668;BME280;57205;51.438;-2.006;2023-04-06T01:17:54;100732.41;;;9.35;100.00
66668;BME280;57205;51.438;-2.006;2023-04-06T01:20:20;100724.38;;;9.30;100.00
66668;BME280;57205;51.438;-2.006;2023-04-06T01:22:45;100721.69;;;9.30;100.00
66668;BME280;57205;51.438;-2.006;2023-04-06T01:25:11;100722.25;;;9.32;100.00
66668;BME280;57205;51.438;-2.006;2023-04-06T01:27:36;100709.16;;;9.30;100.00
66668;BME280;57205;51.438;-2.006;2023-04-06T01:30:02;100712.13;;;9.34;100.00
66668;BME280;57205;51.438;-2.006;2023-04-06T01:32:28;100714.81;;;9.34;100.00
66668;BME280;57205;51.438;-2.006;2023-04-06T01:34:53;100712.38;;;9.32;100.00
66668;BME280;57205;51.438;-2.006;2023-04-06T01:37:20;100700.63;;;9.33;100.00
66668;BME280;57205;51.438;-2.006;2023-04-06T01:39:45;100704.13;;;9.34;100.00
66668;BME280;57205;51.438;-2.006;2023-04-06T01:42:11;100706.78;;;9.34;100.00
66668;BME280;57205;51.438;-2.006;2023-04-06T01:44:36;100694.47;;;9.33;100.00
66668;BME280;57205;51.438;-2.006;2023-04-06T01:50:23;100691.06;;;9.37;100.00
66668;BME280;57205;51.438;-2.006;2023-04-06T01:56:10;100692.66;;;9.38;100.00
66668;BME280;57205;51.438;-2.006;2023-04-06T01:58:36;100695.09;;;9.40;100.00
66668;BME280;57205;51.438;-2.006;2023-04-06T02:01:03;100690.81;;;9.39;100.00
66668;BME280;57205;51.438;-2.006;2023-04-06T02:03:28;100680.94;;;9.39;100.00
66668;BME280;57205;51.438;-2.006;2023-04-06T02:05:54;100687.09;;;9.40;100.00
66668;BME280;57205;51.438;-2.006;2023-04-06T02:08:20;100683.88;;;9.38;100.00
66668;BME280;57205;51.438;-2.006;2023-04-06T02:11:06;100682.53;;;9.40;100.00
66668;BME280;57205;51.438;-2.006;2023-04-06T02:13:33;100680.13;;;9.39;100.00
66668;BME280;57205;51.438;-2.006;2023-04-06T02:15:58;100676.63;;;9.38;100.00
66668;BME280;57205;51.438;-2.006;2023-04-06T02:18:24;100675.34;;;9.41;100.00
66668;BME280;57205;51.438;-2.006;2023-04-06T02:20:49;100667.06;;;9.42;100.00
66668;BME280;57205;51.438;-2.006;2023-04-06T02:23:15;100669.72;;;9.42;100.00
66668;BME280;57205;51.438;-2.006;2023-04-06T02:25:40;100661.47;;;9.44;100.00
66668;BME280;57205;51.438;-2.006;2023-04-06T02:28:07;100660.41;;;9.45;100.00
66668;BME280;57205;51.438;-2.006;2023-04-06T02:30:32;100664.94;;;9.44;100.00
66668;BME280;57205;51.438;-2.006;2023-04-06T02:33:02;100658.78;;;9.44;100.00
66668;BME280;57205;51.438;-2.006;2023-04-06T02:35:28;100662.28;;;9.44;100.00
66668;BME280;57205;51.438;-2.006;2023-04-06T02:37:54;100664.13;;;9.44;100.00
66668;BME280;57205;51.438;-2.006;2023-04-06T02:40:19;100655.63;;;9.47;100.00
66668;BME280;57205;51.438;-2.006;2023-04-06T02:42:45;100662.00;;;9.46;100.00
66668;BME280;57205;51.438;-2.006;2023-04-06T02:45:10;100661.53;;;9.49;100.00
66668;BME280;57205;51.438;-2.006;2023-04-06T02:47:36;100657.00;;;9.49;100.00
66668;BME280;57205;51.438;-2.006;2023-04-06T02:50:01;100655.63;;;9.47;100.00
66668;BME280;57205;51.438;-2.006;2023-04-06T02:52:26;100651.31;;;9.46;100.00
66668;BME280;57205;51.438;-2.006;2023-04-06T02:54:53;100645.75;;;9.47;100.00
66668;BME280;57205;51.438;-2.006;2023-04-06T02:57:19;100651.88;;;9.48;100.00
66668;BME280;57205;51.438;-2.006;2023-04-06T02:59:44;100654.31;;;9.49;100.00
66668;BME280;57205;51.438;-2.006;2023-04-06T03:02:10;100644.94;;;9.47;100.00
66668;BME280;57205;51.438;-2.006;2023-04-06T03:04:35;100652.69;;;9.48;100.00
66668;BME280;57205;51.438;-2.006;2023-04-06T03:07:01;100640.41;;;9.47;100.00
66668;BME280;57205;51.438;-2.006;2023-04-06T03:09:27;100644.94;;;9.47;100.00
66668;BME280;57205;51.438;-2.006;2023-04-06T03:11:53;100648.16;;;9.49;100.00
66668;BME280;57205;51.438;-2.006;2023-04-06T03:14:18;100641.75;;;9.50;100.00
66668;BME280;57205;51.438;-2.006;2023-04-06T03:16:47;100633.47;;;9.51;100.00
66668;BME280;57205;51.438;-2.006;2023-04-06T03:19:13;100627.63;;;9.54;100.00
66668;BME280;57205;51.438;-2.006;2023-04-06T03:21:38;100630.84;;;9.56;100.00
66668;BME280;57205;51.438;-2.006;2023-04-06T03:24:05;100621.47;;;9.54;100.00
66668;BME280;57205;51.438;-2.006;2023-04-06T03:26:31;100617.72;;;9.50;100.00
66668;BME280;57205;51.438;-2.006;2023-04-06T03:28:56;100605.44;;;9.49;100.00
66668;BME280;57205;51.438;-2.006;2023-04-06T03:31:21;100589.13;;;9.45;100.00
66668;BME280;57205;51.438;-2.006;2023-04-06T03:33:47;100588.84;;;9.47;100.00
66668;BME280;57205;51.438;-2.006;2023-04-06T03:36:12;100588.84;;;9.42;100.00
66668;BME280;57205;51.438;-2.006;2023-04-06T03:38:38;100589.63;;;9.42;100.00
66668;BME280;57205;51.438;-2.006;2023-04-06T03:41:04;100579.19;;;9.41;100.00
66668;BME280;57205;51.438;-2.006;2023-04-06T03:43:29;100595.75;;;9.38;100.00
66668;BME280;57205;51.438;-2.006;2023-04-06T03:45:55;100585.56;;;9.35;100.00
66668;BME280;57205;51.438;-2.006;2023-04-06T03:48:20;100574.59;;;9.31;100.00
66668;BME280;57205;51.438;-2.006;2023-04-06T03:50:46;100568.97;;;9.28;100.00
66668;BME280;57205;51.438;-2.006;2023-04-06T03:53:11;100571.63;;;9.28;100.00
66668;BME280;57205;51.438;-2.006;2023-04-06T03:55:36;100570.53;;;9.24;100.00
66668;BME280;57205;51.438;-2.006;2023-04-06T03:58:02;100566.00;;;9.24;100.00
66668;BME280;57205;51.438;-2.006;2023-04-06T04:00:27;100543.53;;;9.20;100.00
66668;BME280;57205;51.438;-2.006;2023-04-06T04:02:53;100540.06;;;9.20;100.00
66668;BME280;57205;51.438;-2.006;2023-04-06T04:05:18;100544.56;;;9.14;100.00
66668;BME280;57205;51.438;-2.006;2023-04-06T04:07:44;100556.56;;;9.12;100.00
66668;BME280;57205;51.438;-2.006;2023-04-06T04:10:10;100555.75;;;9.11;100.00
66668;BME280;57205;51.438;-2.006;2023-04-06T04:12:36;100560.81;;;9.08;100.00
66668;BME280;57205;51.438;-2.006;2023-04-06T04:15:01;100563.47;;;9.08;100.00
66668;BME280;57205;51.438;-2.006;2023-04-06T04:17:29;100589.88;;;9.04;100.00
66668;BME280;57205;51.438;-2.006;2023-04-06T04:19:55;100588.00;;;9.05;100.00
66668;BME280;57205;51.438;-2.006;2023-04-06T04:22:20;100601.59;;;9.03;100.00
66668;BME280;57205;51.438;-2.006;2023-04-06T04:24:45;100598.38;;;9.01;100.00
66668;BME280;57205;51.438;-2.006;2023-04-06T04:27:14;100612.25;;;9.03;100.00
66668;BME280;57205;51.438;-2.006;2023-04-06T04:29:39;100603.47;;;9.03;100.00
66668;BME280;57205;51.438;-2.006;2023-04-06T04:32:05;100599.72;;;9.04;100.00
66668;BME280;57205;51.438;-2.006;2023-04-06T04:34:30;100600.53;;;9.04;100.00
66668;BME280;57205;51.438;-2.006;2023-04-06T04:36:56;100602.97;;;9.06;100.00
66668;BME280;57205;51.438;-2.006;2023-04-06T04:39:22;100600.31;;;9.11;100.00
66668;BME280;57205;51.438;-2.006;2023-04-06T04:41:47;100595.53;;;9.13;100.00
66668;BME280;57205;51.438;-2.006;2023-04-06T04:44:13;100590.72;;;9.10;100.00
66668;BME280;57205;51.438;-2.006;2023-04-06T04:46:38;100580.84;;;9.10;100.00
66668;BME280;57205;51.438;-2.006;2023-04-06T04:49:04;100578.97;;;9.11;100.00
66668;BME280;57205;51.438;-2.006;2023-04-06T04:51:29;100576.28;;;9.11;100.00
66668;BME280;57205;51.438;-2.006;2023-04-06T04:53:56;100568.81;;;9.08;100.00
66668;BME280;57205;51.438;-2.006;2023-04-06T04:56:21;100576.28;;;9.11;100.00
66668;BME280;57205;51.438;-2.006;2023-04-06T04:58:47;100572.59;;;9.12;100.00
66668;BME280;57205;51.438;-2.006;2023-04-06T05:01:12;100573.06;;;9.09;100.00
66668;BME280;57205;51.438;-2.006;2023-04-06T05:03:38;100567.22;;;9.07;100.00
66668;BME280;57205;51.438;-2.006;2023-04-06T05:06:05;100570.97;;;9.11;100.00
66668;BME280;57205;51.438;-2.006;2023-04-06T05:08:33;100565.91;;;9.14;100.00
66668;BME280;57205;51.438;-2.006;2023-04-06T05:10:58;100556.53;;;9.07;100.00
66668;BME280;57205;51.438;-2.006;2023-04-06T05:13:24;100552.25;;;9.06;100.00
66668;BME280;57205;51.438;-2.006;2023-04-06T05:15:49;100553.06;;;9.06;100.00
66668;BME280;57205;51.438;-2.006;2023-04-06T05:18:15;100549.56;;;9.06;100.00
66668;BME280;57205;51.438;-2.006;2023-04-06T05:20:40;100558.41;;;9.06;100.00
66668;BME280;57205;51.438;-2.006;2023-04-06T05:23:07;100564.53;;;9.07;100.00
66668;BME280;57205;51.438;-2.006;2023-04-06T05:25:33;100561.06;;;9.06;100.00
66668;BME280;57205;51.438;-2.006;2023-04-06T05:27:58;100565.59;;;9.06;100.00
66668;BME280;57205;51.438;-2.006;2023-04-06T05:30:24;100567.44;;;9.05;100.00
66668;BME280;57205;51.438;-2.006;2023-04-06T05:32:50;100565.63;;;9.11;100.00
66668;BME280;57205;51.438;-2.006;2023-04-06T05:35:16;100564.28;;;9.08;100.00
66668;BME280;57205;51.438;-2.006;2023-04-06T05:37:42;100559.72;;;9.09;100.00
66668;BME280;57205;51.438;-2.006;2023-04-06T05:40:08;100564.03;;;9.10;100.00
66668;BME280;57205;51.438;-2.006;2023-04-06T05:42:41;100558.97;;;9.13;100.00
66668;BME280;57205;51.438;-2.006;2023-04-06T05:45:08;100566.69;;;9.10;100.00
66668;BME280;57205;51.438;-2.006;2023-04-06T05:47:34;100558.72;;;9.15;100.00
66668;BME280;57205;51.438;-2.006;2023-04-06T05:50:00;100564.59;;;9.17;100.00
66668;BME280;57205;51.438;-2.006;2023-04-06T05:52:27;100571.88;;;9.21;100.00
66668;BME280;57205;51.438;-2.006;2023-04-06T05:54:52;100565.72;;;9.21;100.00
66668;BME280;57205;51.438;-2.006;2023-04-06T05:57:17;100571.88;;;9.21;100.00
66668;BME280;57205;51.438;-2.006;2023-04-06T05:59:43;100573.47;;;9.22;100.00
66668;BME280;57205;51.438;-2.006;2023-04-06T06:02:09;100583.31;;;9.22;100.00
66668;BME280;57205;51.438;-2.006;2023-04-06T06:04:34;100577.50;;;9.25;100.00
66668;BME280;57205;51.438;-2.006;2023-04-06T06:07:00;100585.53;;;9.30;100.00
66668;BME280;57205;51.438;-2.006;2023-04-06T06:09:26;100581.56;;;9.32;100.00
66668;BME280;57205;51.438;-2.006;2023-04-06T06:11:52;100589.84;;;9.36;100.00
66668;BME280;57205;51.438;-2.006;2023-04-06T06:14:17;100586.16;;;9.42;100.00
66668;BME280;57205;51.438;-2.006;2023-04-06T06:16:43;100590.97;;;9.45;100.00
66668;BME280;57205;51.438;-2.006;2023-04-06T06:19:08;100586.47;;;9.50;100.00
66668;BME280;57205;51.438;-2.006;2023-04-06T06:21:34;100585.16;;;9.53;100.00
66668;BME280;57205;51.438;-2.006;2023-04-06T06:23:59;100585.94;;;9.53;100.00
66668;BME280;57205;51.438;-2.006;2023-04-06T06:26:25;100588.91;;;9.57;100.00
66668;BME280;57205;51.438;-2.006;2023-04-06T06:28:51;100592.09;;;9.54;100.00
66668;BME280;57205;51.438;-2.006;2023-04-06T06:31:16;100588.63;;;9.53;100.00
66668;BME280;57205;51.438;-2.006;2023-04-06T06:33:42;100589.44;;;9.59;100.00
66668;BME280;57205;51.438;-2.006;2023-04-06T06:36:07;100595.91;;;9.63;100.00
66668;BME280;57205;51.438;-2.006;2023-04-06T06:38:33;100595.91;;;9.63;100.00
66668;BME280;57205;51.438;-2.006;2023-04-06T06:40:58;100603.97;;;9.68;100.00
66668;BME280;57205;51.438;-2.006;2023-04-06T06:43:24;100609.31;;;9.68;100.00
66668;BME280;57205;51.438;-2.006;2023-04-06T06:45:49;100615.22;;;9.75;100.00
66668;BME280;57205;51.438;-2.006;2023-04-06T06:48:17;100617.91;;;9.80;100.00
66668;BME280;57205;51.438;-2.006;2023-04-06T06:50:42;100616.34;;;9.84;100.00
66668;BME280;57205;51.438;-2.006;2023-04-06T06:53:08;100619.84;;;9.95;100.00
66668;BME280;57205;51.438;-2.006;2023-04-06T06:55:33;100624.97;;;10.01;100.00
66668;BME280;57205;51.438;-2.006;2023-04-06T06:57:59;100619.09;;;10.04;100.00
66668;BME280;57205;51.438;-2.006;2023-04-06T07:00:24;100610.31;;;10.09;100.00
66668;BME280;57205;51.438;-2.006;2023-04-06T07:02:49;100624.25;;;10.11;100.00
66668;BME280;57205;51.438;-2.006;2023-04-06T07:05:16;100617.56;;;10.13;100.00
66668;BME280;57205;51.438;-2.006;2023-04-06T07:07:41;100628.88;;;10.30;100.00
66668;BME280;57205;51.438;-2.006;2023-04-06T07:10:08;100628.41;;;10.48;100.00
66668;BME280;57205;51.438;-2.006;2023-04-06T07:12:33;100628.44;;;10.63;100.00
66668;BME280;57205;51.438;-2.006;2023-04-06T07:14:59;100622.03;;;10.64;100.00
66668;BME280;57205;51.438;-2.006;2023-04-06T07:17:24;100628.72;;;10.67;100.00
66668;BME280;57205;51.438;-2.006;2023-04-06T07:19:50;100624.19;;;10.67;100.00
66668;BME280;57205;51.438;-2.006;2023-04-06T07:22:16;100616.97;;;10.73;100.00
66668;BME280;57205;51.438;-2.006;2023-04-06T07:24:41;100623.41;;;10.82;100.00
66668;BME280;57205;51.438;-2.006;2023-04-06T07:27:07;100618.84;;;10.88;100.00
66668;BME280;57205;51.438;-2.006;2023-04-06T07:29:32;100618.03;;;10.87;100.00
66668;BME280;57205;51.438;-2.006;2023-04-06T07:31:58;100623.66;;;10.91;100.00
66668;BME280;57205;51.438;-2.006;2023-04-06T07:34:23;100616.75;;;11.00;100.00
66668;BME280;57205;51.438;-2.006;2023-04-06T07:36:49;100616.22;;;11.13;100.00
66668;BME280;57205;51.438;-2.006;2023-04-06T07:39:14;100609.50;;;11.25;100.00
66668;BME280;57205;51.438;-2.006;2023-04-06T07:41:40;100608.97;;;11.33;100.00
66668;BME280;57205;51.438;-2.006;2023-04-06T07:44:06;100606.56;;;11.37;100.00
66668;BME280;57205;51.438;-2.006;2023-04-06T07:46:31;100608.16;;;11.43;100.00
66668;BME280;57205;51.438;-2.006;2023-04-06T07:48:59;100612.16;;;11.50;100.00
66668;BME280;57205;51.438;-2.006;2023-04-06T07:51:26;100610.00;;;11.52;100.00
66668;BME280;57205;51.438;-2.006;2023-04-06T07:53:51;100616.19;;;11.53;100.00
66668;BME280;57205;51.438;-2.006;2023-04-06T07:56:17;100622.34;;;11.43;100.00
66668;BME280;57205;51.438;-2.006;2023-04-06T07:58:43;100616.47;;;11.41;100.00
66668;BME280;57205;51.438;-2.006;2023-04-06T08:01:08;100621.53;;;11.43;100.00
66668;BME280;57205;51.438;-2.006;2023-04-06T08:03:34;100624.25;;;11.48;100.00
66668;BME280;57205;51.438;-2.006;2023-04-06T08:06:00;100618.84;;;11.73;100.00
66668;BME280;57205;51.438;-2.006;2023-04-06T08:08:26;100626.59;;;11.90;100.00
66668;BME280;57205;51.438;-2.006;2023-04-06T08:10:52;100625.72;;;12.04;100.00
66668;BME280;57205;51.438;-2.006;2023-04-06T08:13:17;100630.53;;;12.22;100.00
66668;BME280;57205;51.438;-2.006;2023-04-06T08:15:43;100627.44;;;12.49;100.00
66668;BME280;57205;51.438;-2.006;2023-04-06T08:18:08;100625.41;;;12.80;100.00
66668;BME280;57205;51.438;-2.006;2023-04-06T08:20:35;100617.53;;;13.27;100.00
66668;BME280;57205;51.438;-2.006;2023-04-06T08:23:00;100620.19;;;13.60;100.00
66668;BME280;57205;51.438;-2.006;2023-04-06T08:25:27;100618.03;;;13.86;100.00
66668;BME280;57205;51.438;-2.006;2023-04-06T08:27:54;100630.69;;;14.38;100.00
66668;BME280;57205;51.438;-2.006;2023-04-06T08:30:22;100629.47;;;15.05;100.00
66668;BME280;57205;51.438;-2.006;2023-04-06T08:32:47;100620.50;;;16.01;100.00
66668;BME280;57205;51.438;-2.006;2023-04-06T08:35:13;100616.84;;;16.73;100.00
66668;BME280;57205;51.438;-2.006;2023-04-06T08:37:40;100620.22;;;17.67;96.94
66668;BME280;57205;51.438;-2.006;2023-04-06T08:40:06;100619.63;;;18.66;90.85
66668;BME280;57205;51.438;-2.006;2023-04-06T08:42:33;100625.69;;;19.05;86.25
66668;BME280;57205;51.438;-2.006;2023-04-06T08:45:02;100627.13;;;19.37;80.02
66668;BME280;57205;51.438;-2.006;2023-04-06T08:47:28;100628.56;;;19.34;76.47
66668;BME280;57205;51.438;-2.006;2023-04-06T08:49:53;100629.34;;;19.43;77.65
66668;BME280;57205;51.438;-2.006;2023-04-06T08:52:19;100622.28;;;20.06;73.71
66668;BME280;57205;51.438;-2.006;2023-04-06T08:54:45;100632.00;;;20.45;69.65
66668;BME280;57205;51.438;-2.006;2023-04-06T08:57:11;100630.69;;;20.51;68.59
66668;BME280;57205;51.438;-2.006;2023-04-06T08:59:37;100635.97;;;20.18;67.13
66668;BME280;57205;51.438;-2.006;2023-04-06T09:02:04;100633.09;;;20.23;67.33
66668;BME280;57205;51.438;-2.006;2023-04-06T09:04:36;100634.22;;;19.84;70.23
66668;BME280;57205;51.438;-2.006;2023-04-06T09:07:02;100633.88;;;19.77;66.75
66668;BME280;57205;51.438;-2.006;2023-04-06T09:09:27;100638.38;;;19.73;67.69
66668;BME280;57205;51.438;-2.006;2023-04-06T09:11:53;100637.59;;;19.64;66.86
66668;BME280;57205;51.438;-2.006;2023-04-06T09:14:37;100645.28;;;19.54;66.28
66668;BME280;57205;51.438;-2.006;2023-04-06T09:17:04;100651.56;;;19.37;69.76
66668;BME280;57205;51.438;-2.006;2023-04-06T09:19:30;100642.22;;;18.52;71.33
66668;BME280;57205;51.438;-2.006;2023-04-06T09:22:05;100652.63;;;18.59;72.42
66668;BME280;57205;51.438;-2.006;2023-04-06T09:24:42;100649.25;;;18.06;72.28
66668;BME280;57205;51.438;-2.006;2023-04-06T09:27:08;100649.53;;;18.04;76.03
66668;BME280;57205;51.438;-2.006;2023-04-06T09:29:34;100645.34;;;17.90;75.26
66668;BME280;57205;51.438;-2.006;2023-04-06T09:32:06;100653.81;;;17.00;79.19
66668;BME280;57205;51.438;-2.006;2023-04-06T09:34:33;100656.53;;;17.22;82.73
66668;BME280;57205;51.438;-2.006;2023-04-06T09:36:59;100652.53;;;17.94;75.91
66668;BME280;57205;51.438;-2.006;2023-04-06T09:39:25;100660.16;;;18.71;69.42
66668;BME280;57205;51.438;-2.006;2023-04-06T09:41:53;100655.84;;;19.47;64.27
66668;BME280;57205;51.438;-2.006;2023-04-06T09:44:19;100653.25;;;19.67;62.99
66668;BME280;57205;51.438;-2.006;2023-04-06T09:46:46;100644.34;;;19.58;58.91
66668;BME280;57205;51.438;-2.006;2023-04-06T09:49:13;100653.88;;;19.64;58.26
66668;BME280;57205;51.438;-2.006;2023-04-06T09:51:46;100652.13;;;19.68;60.04
66668;BME280;57205;51.438;-2.006;2023-04-06T09:54:21;100661.91;;;19.09;61.41
66668;BME280;57205;51.438;-2.006;2023-04-06T10:02:59;100656.81;;;16.63;71.09
66668;BME280;57205;51.438;-2.006;2023-04-06T10:05:36;100660.28;;;16.22;75.11
66668;BME280;57205;51.438;-2.006;2023-04-06T10:08:08;100668.50;;;15.90;77.30
66668;BME280;57205;51.438;-2.006;2023-04-06T10:10:37;100671.00;;;15.54;77.87
66668;BME280;57205;51.438;-2.006;2023-04-06T10:13:07;100672.47;;;15.28;78.53
66668;BME280;57205;51.438;-2.006;2023-04-06T10:15:33;100680.06;;;15.45;78.85
66668;BME280;57205;51.438;-2.006;2023-04-06T10:17:59;100682.59;;;15.55;76.17
66668;BME280;57205;51.438;-2.006;2023-04-06T10:20:39;100682.53;;;15.41;79.00
66668;BME280;57205;51.438;-2.006;2023-04-06T10:23:26;100674.44;;;15.23;79.08
66668;BME280;57205;51.438;-2.006;2023-04-06T10:26:00;100682.03;;;15.21;81.32
66668;BME280;57205;51.438;-2.006;2023-04-06T10:28:30;100674.59;;;15.13;79.89
66668;BME280;57205;51.438;-2.006;2023-04-06T10:30:57;100681.00;;;14.80;80.24
66668;BME280;57205;51.438;-2.006;2023-04-06T10:33:26;100680.94;;;14.42;82.46
66668;BME280;57205;51.438;-2.006;2023-04-06T10:35:53;100682.41;;;14.53;83.76
66668;BME280;57205;51.438;-2.006;2023-04-06T10:38:21;100687.09;;;14.66;82.99
66668;BME280;57205;51.438;-2.006;2023-04-06T10:40:48;100676.63;;;14.84;80.90
66668;BME280;57205;51.438;-2.006;2023-04-06T10:43:20;100683.47;;;15.32;76.63
66668;BME280;57205;51.438;-2.006;2023-04-06T10:45:55;100681.88;;;15.49;74.79
66668;BME280;57205;51.438;-2.006;2023-04-06T10:48:21;100688.56;;;15.52;74.96
66668;BME280;57205;51.438;-2.006;2023-04-06T10:50:51;100689.97;;;15.31;73.07
66668;BME280;57205;51.438;-2.006;2023-04-06T10:53:23;100681.88;;;15.31;75.32
66668;BME280;57205;51.438;-2.006;2023-04-06T10:55:54;100685.16;;;15.28;72.14
66668;BME280;57205;51.438;-2.006;2023-04-06T10:58:26;100684.69;;;15.39;72.43
66668;BME280;57205;51.438;-2.006;2023-04-06T11:00:52;100686.56;;;15.44;69.72
66668;BME280;57205;51.438;-2.006;2023-04-06T11:03:18;100685.06;;;15.33;71.74
66668;BME280;57205;51.438;-2.006;2023-04-06T11:05:44;100680.47;;;15.52;72.95
66668;BME280;57205;51.438;-2.006;2023-04-06T11:08:32;100677.66;;;15.89;72.37
66668;BME280;57205;51.438;-2.006;2023-04-06T11:11:10;100680.25;;;15.81;67.58
66668;BME280;57205;51.438;-2.006;2023-04-06T11:16:04;100686.44;;;15.81;67.24
66668;BME280;57205;51.438;-2.006;2023-04-06T11:18:30;100688.22;;;15.72;67.31
66668;BME280;57205;51.438;-2.006;2023-04-06T11:20:56;100682.19;;;16.07;67.49
66668;BME280;57205;51.438;-2.006;2023-04-06T11:23:25;100680.63;;;16.20;67.17
66668;BME280;57205;51.438;-2.006;2023-04-06T11:25:52;100678.91;;;16.37;66.99
66668;BME280;57205;51.438;-2.006;2023-04-06T11:28:19;100684.13;;;16.47;65.81
66668;BME280;57205;51.438;-2.006;2023-04-06T11:30:46;100691.28;;;16.11;66.54
66668;BME280;57205;51.438;-2.006;2023-04-06T11:33:20;100692.50;;;16.32;69.38
66668;BME280;57205;51.438;-2.006;2023-04-06T11:35:46;100711.50;;;16.41;69.74
66668;BME280;57205;51.438;-2.006;2023-04-06T11:38:12;100721.97;;;15.88;69.28
66668;BME280;57205;51.438;-2.006;2023-04-06T11:40:37;100739.91;;;15.47;67.76
66668;BME280;57205;51.438;-2.006;2023-04-06T11:43:04;100747.59;;;13.98;73.11
66668;BME280;57205;51.438;-2.006;2023-04-06T11:45:40;100756.66;;;13.40;77.90
66668;BME280;57205;51.438;-2.006;2023-04-06T11:48:06;100756.81;;;13.15;82.18
66668;BME280;57205;51.438;-2.006;2023-04-06T11:50:42;100756.13;;;12.89;85.60
66668;BME280;57205;51.438;-2.006;2023-04-06T11:53:08;100758.66;;;12.60;88.04
66668;BME280;57205;51.438;-2.006;2023-04-06T11:55:39;100755.97;;;12.55;92.41
66668;BME280;57205;51.438;-2.006;2023-04-06T11:58:05;100750.88;;;12.59;95.77
66668;BME280;57205;51.438;-2.006;2023-04-06T12:00:32;100757.50;;;12.82;100.00
66668;BME280;57205;51.438;-2.006;2023-04-06T12:03:00;100755.53;;;12.97;100.00
66668;BME280;57205;51.438;-2.006;2023-04-06T12:05:26;100754.09;;;13.20;100.00
66668;BME280;57205;51.438;-2.006;2023-04-06T12:07:52;100760.41;;;13.44;100.00
66668;BME280;57205;51.438;-2.006;2023-04-06T12:10:18;100757.13;;;13.52;99.34
66668;BME280;57205;51.438;-2.006;2023-04-06T12:12:43;100754.72;;;13.50;93.01
66668;BME280;57205;51.438;-2.006;2023-04-06T12:15:10;100748.19;;;13.56;91.24
66668;BME280;57205;51.438;-2.006;2023-04-06T12:17:35;100751.66;;;13.62;87.89
66668;BME280;57205;51.438;-2.006;2023-04-06T12:20:02;100753.38;;;13.48;90.52
66668;BME280;57205;51.438;-2.006;2023-04-06T12:22:28;100767.88;;;13.52;97.23
66668;BME280;57205;51.438;-2.006;2023-04-06T12:24:53;100767.16;;;13.36;100.00
66668;BME280;57205;51.438;-2.006;2023-04-06T12:27:19;100776.41;;;13.20;100.00
66668;BME280;57205;51.438;-2.006;2023-04-06T12:29:45;100785.72;;;12.74;100.00
66668;BME280;57205;51.438;-2.006;2023-04-06T12:32:10;100773.50;;;12.08;100.00
66668;BME280;57205;51.438;-2.006;2023-04-06T12:34:37;100767.06;;;12.14;100.00
66668;BME280;57205;51.438;-2.006;2023-04-06T12:37:03;100765.19;;;12.04;100.00
66668;BME280;57205;51.438;-2.006;2023-04-06T12:39:28;100752.31;;;12.21;100.00
66668;BME280;57205;51.438;-2.006;2023-04-06T12:41:54;100748.00;;;12.30;100.00
66668;BME280;57205;51.438;-2.006;2023-04-06T12:44:20;100758.41;;;12.52;100.00
66668;BME280;57205;51.438;-2.006;2023-04-06T12:46:45;100756.19;;;12.74;100.00
66668;BME280;57205;51.438;-2.006;2023-04-06T12:49:11;100755.53;;;13.02;100.00
66668;BME280;57205;51.438;-2.006;2023-04-06T12:51:37;100751.66;;;13.28;100.00